Time;durP1;ratioP1;P1;durP2;ratioP2;P2;SDS_P1;SDS_P2;PMS_P1;PMS_P2;Temp;Humidity;BMP_temperature;BMP_pressure;BME280_temperature;BME280_humidity;BME280_pressure;Samples;Min_cycle;Max_cycle;Signal;HPM_P1;HPM_P2
2021/01/04 00:00:05;;;;;;;30.27;21.70;;;3.30;99.90;;;;;;6219518;23;20185;-80
2021/01/04 00:02:48;;;;;;;33.00;24.70;;;3.30;99.90;;;;;;6219394;23;20170;-80
2021/01/04 00:05:20;;;;;;;33.08;26.75;;;3.30;99.90;;;;;;6218053;23;20167;-80
2021/01/04 00:08:01;;;;;;;33.22;23.30;;;3.30;99.90;;;;;;6218564;23;20209;-80
2021/01/04 00:10:37;;;;;;;35.35;24.80;;;3.30;99.90;;;;;;6218035;23;20166;-80
2021/01/04 00:13:14;;;;;;;40.05;24.02;;;3.40;99.90;;;;;;6218263;23;20193;-80
2021/01/04 00:15:46;;;;;;;38.35;24.95;;;3.30;99.90;;;;;;6218357;23;20173;-80
2021/01/04 00:18:28;;;;;;;37.00;24.35;;;3.30;99.90;;;;;;6219841;23;20198;-80
2021/01/04 00:20:58;;;;;;;39.70;24.40;;;3.30;99.90;;;;;;6220133;23;20610;-80
2021/01/04 00:23:33;;;;;;;37.40;25.23;;;3.30;99.90;;;;;;6221054;23;20552;-80
2021/01/04 00:26:06;;;;;;;38.00;24.02;;;3.30;99.90;;;;;;6221061;23;20168;-80
2021/01/04 00:28:36;;;;;;;37.95;24.27;;;3.30;99.90;;;;;;6220853;23;20206;-80
2021/01/04 00:31:08;;;;;;;27.90;22.30;;;3.30;99.90;;;;;;6220777;23;20185;-80
2021/01/04 00:33:37;;;;;;;31.17;22.02;;;3.30;99.90;;;;;;6221114;23;20224;-80
2021/01/04 00:36:06;;;;;;;35.28;24.70;;;3.30;99.90;;;;;;6219803;23;20236;-80
2021/01/04 00:39:08;;;;;;;41.47;24.92;;;3.40;99.90;;;;;;6219455;23;20260;-80
2021/01/04 00:41:48;;;;;;;33.67;23.23;;;3.40;99.90;;;;;;6174401;23;20183;-80
2021/01/04 00:44:21;;;;;;;36.45;23.38;;;3.40;99.90;;;;;;6219202;23;20245;-80
2021/01/04 00:46:55;;;;;;;41.90;26.15;;;3.40;99.90;;;;;;6219992;23;20208;-80
2021/01/04 00:49:27;;;;;;;34.95;24.45;;;3.40;99.90;;;;;;6220246;23;20189;-80
2021/01/04 00:52:00;;;;;;;32.78;21.67;;;3.50;99.90;;;;;;6218626;23;20170;-80
2021/01/04 00:54:43;;;;;;;32.97;23.67;;;3.50;99.90;;;;;;6220528;23;20170;-80
2021/01/04 00:57:27;;;;;;;30.83;21.67;;;3.50;99.90;;;;;;6221785;23;20201;-80
2021/01/04 01:00:08;;;;;;;33.08;22.45;;;3.50;99.90;;;;;;6224041;23;20162;-80
2021/01/04 01:03:13;;;;;;;36.08;21.52;;;3.50;99.90;;;;;;6225178;23;20166;-80
2021/01/04 01:05:49;;;;;;;35.05;22.45;;;3.50;99.90;;;;;;6224567;23;20232;-80
2021/01/04 01:08:20;;;;;;;33.78;25.35;;;3.50;99.90;;;;;;6224570;23;20684;-80
2021/01/04 01:10:51;;;;;;;34.17;22.48;;;3.40;99.90;;;;;;6224841;23;20167;-80
2021/01/04 01:13:37;;;;;;;38.45;25.15;;;3.40;99.90;;;;;;6223097;23;20189;-80
2021/01/04 01:16:18;;;;;;;34.40;22.35;;;3.40;99.90;;;;;;6198858;23;20212;-80
2021/01/04 01:18:49;;;;;;;27.75;21.83;;;3.40;99.90;;;;;;6223944;23;20162;-80
2021/01/04 01:21:16;;;;;;;34.35;23.30;;;3.40;99.90;;;;;;6224090;23;20166;-79
2021/01/04 01:23:43;;;;;;;38.70;23.83;;;3.40;99.90;;;;;;6224216;23;20499;-80
2021/01/04 01:26:25;;;;;;;34.63;21.65;;;3.40;99.90;;;;;;6223330;23;20178;-80
2021/01/04 01:29:13;;;;;;;33.03;22.88;;;3.40;99.90;;;;;;6223770;23;20208;-80
2021/01/04 01:32:02;;;;;;;35.25;21.92;;;3.40;99.90;;;;;;6223740;23;20167;-80
2021/01/04 01:34:43;;;;;;;41.13;26.65;;;3.40;99.90;;;;;;6224124;23;20177;-79
2021/01/04 01:37:34;;;;;;;29.25;21.45;;;3.40;99.90;;;;;;6224128;23;20205;-80
2021/01/04 01:40:24;;;;;;;32.97;23.48;;;3.40;99.90;;;;;;6206362;23;20209;-79
2021/01/04 01:43:12;;;;;;;34.97;23.27;;;3.40;99.90;;;;;;6223792;23;20193;-79
2021/01/04 01:45:44;;;;;;;39.78;23.88;;;3.40;99.90;;;;;;6223251;23;20166;-80
2021/01/04 01:48:21;;;;;;;37.40;24.30;;;3.30;99.90;;;;;;6223497;23;20209;-79
2021/01/04 01:50:52;;;;;;;36.95;24.13;;;3.40;99.90;;;;;;6222250;23;20191;-80
2021/01/04 01:53:26;;;;;;;31.63;23.60;;;3.40;99.90;;;;;;6221448;23;20170;-80
2021/01/04 01:56:11;;;;;;;36.45;24.55;;;3.30;99.90;;;;;;6222230;23;20166;-80
2021/01/04 01:59:03;;;;;;;35.58;23.25;;;3.40;99.90;;;;;;6222950;23;20194;-80
2021/01/04 02:01:36;;;;;;;36.13;23.98;;;3.40;99.90;;;;;;6222870;23;20622;-80
2021/01/04 02:04:07;;;;;;;40.50;27.60;;;3.30;99.90;;;;;;6221896;23;20178;-79
2021/01/04 02:07:06;;;;;;;34.45;25.25;;;3.40;99.90;;;;;;6222466;23;20177;-80
2021/01/04 02:09:39;;;;;;;37.95;25.33;;;3.40;99.90;;;;;;6211262;23;20194;-80
2021/01/04 02:12:12;;;;;;;43.13;26.55;;;3.30;99.90;;;;;;6220919;23;20633;-80
2021/01/04 02:14:50;;;;;;;29.85;23.52;;;3.40;99.90;;;;;;6222793;23;20220;-80
2021/01/04 02:17:34;;;;;;;34.53;24.80;;;3.40;99.90;;;;;;6223119;23;20223;-80
2021/01/04 02:20:29;;;;;;;32.80;24.88;;;3.40;99.90;;;;;;6223516;23;20158;-79
2021/01/04 02:23:15;;;;;;;34.13;25.65;;;3.40;99.90;;;;;;6223406;23;20167;-80
2021/01/04 02:25:46;;;;;;;40.08;27.92;;;3.30;99.90;;;;;;6222550;23;20174;-79
2021/01/04 02:28:16;;;;;;;38.45;24.02;;;3.30;99.90;;;;;;6222544;23;20202;-80
2021/01/04 02:30:43;;;;;;;34.67;23.55;;;3.30;99.90;;;;;;6221947;23;20166;-80
2021/01/04 02:33:12;;;;;;;40.05;24.95;;;3.30;99.90;;;;;;6221021;23;20188;-80
2021/01/04 02:35:40;;;;;;;38.40;27.50;;;3.30;99.90;;;;;;6221917;23;20232;-79
2021/01/04 02:38:08;;;;;;;35.00;22.90;;;3.30;99.90;;;;;;6223014;23;20202;-80
2021/01/04 02:40:34;;;;;;;39.45;24.67;;;3.30;99.90;;;;;;6223110;23;20182;-80
2021/01/04 02:43:01;;;;;;;37.75;23.77;;;3.30;99.90;;;;;;6223092;23;20183;-80
2021/01/04 02:45:31;;;;;;;34.03;23.92;;;3.30;99.90;;;;;;6223068;23;20183;-80
2021/01/04 02:48:25;;;;;;;40.65;26.85;;;3.30;99.90;;;;;;6222919;23;20202;-80
2021/01/04 02:51:00;;;;;;;33.35;23.15;;;3.40;99.90;;;;;;6222207;23;20166;-80
2021/01/04 02:53:59;;;;;;;40.65;24.95;;;3.30;99.90;;;;;;6222338;23;20167;-80
2021/01/04 02:56:43;;;;;;;36.00;26.02;;;3.30;99.90;;;;;;6220993;23;20236;-80
2021/01/04 02:59:45;;;;;;;33.97;25.30;;;3.30;99.90;;;;;;6221263;23;20216;-80
2021/01/04 03:02:16;;;;;;;35.58;23.70;;;3.30;99.90;;;;;;6208374;23;20204;-80
2021/01/04 03:04:46;;;;;;;38.25;26.13;;;3.30;99.90;;;;;;6219552;23;20166;-80
2021/01/04 03:07:15;;;;;;;36.05;27.25;;;3.30;99.90;;;;;;6220897;23;20586;-80
2021/01/04 03:09:44;;;;;;;35.85;23.92;;;3.30;99.90;;;;;;6221826;23;20194;-80
2021/01/04 03:12:15;;;;;;;42.70;25.15;;;3.30;99.90;;;;;;6221250;23;20182;-80
2021/01/04 03:15:01;;;;;;;32.13;24.30;;;3.30;99.90;;;;;;6222670;23;20162;-80
2021/01/04 03:17:39;;;;;;;34.63;23.65;;;3.30;99.90;;;;;;6221271;23;20204;-80
2021/01/04 03:20:11;;;;;;;32.88;23.42;;;3.30;99.90;;;;;;6220172;23;20166;-81
2021/01/04 03:22:38;;;;;;;33.03;23.02;;;3.30;99.90;;;;;;6220617;23;20166;-80
2021/01/04 03:25:13;;;;;;;36.00;26.75;;;3.30;99.90;;;;;;6222447;23;20563;-80
2021/01/04 03:27:41;;;;;;;31.15;23.38;;;3.30;99.90;;;;;;6221331;23;20845;-80
2021/01/04 03:30:08;;;;;;;25.35;21.27;;;3.30;99.90;;;;;;6221954;23;20205;-80
2021/01/04 03:32:35;;;;;;;33.78;21.88;;;3.30;99.90;;;;;;6223515;23;20244;-80
2021/01/04 03:35:02;;;;;;;33.75;23.63;;;3.30;99.90;;;;;;6224451;23;20189;-80
2021/01/04 03:37:28;;;;;;;34.17;24.42;;;3.30;99.90;;;;;;6222871;23;20201;-80
2021/01/04 03:39:54;;;;;;;29.63;21.65;;;3.30;99.90;;;;;;6223490;23;20488;-81
2021/01/04 03:42:20;;;;;;;39.33;24.65;;;3.30;99.90;;;;;;6220577;23;20178;-80
2021/01/04 03:44:46;;;;;;;32.28;23.70;;;3.30;99.90;;;;;;6222986;23;20182;-79
2021/01/04 03:47:12;;;;;;;33.25;23.05;;;3.30;99.90;;;;;;6224770;23;20218;-79
2021/01/04 03:49:42;;;;;;;35.05;23.35;;;3.30;99.90;;;;;;6223879;23;20193;-79
2021/01/04 03:52:09;;;;;;;33.67;22.75;;;3.30;99.90;;;;;;6224860;23;20237;-79
2021/01/04 03:54:35;;;;;;;38.13;24.90;;;3.20;99.90;;;;;;6226320;23;20178;-80
2021/01/04 03:57:01;;;;;;;37.03;25.98;;;3.10;99.90;;;;;;6225387;23;20197;-79
2021/01/04 03:59:27;;;;;;;33.00;22.30;;;3.10;99.90;;;;;;6224785;23;20174;-79
2021/01/04 04:01:56;;;;;;;34.80;24.45;;;3.10;99.90;;;;;;6225112;23;20178;-80
2021/01/04 04:04:23;;;;;;;38.00;24.42;;;3.10;99.90;;;;;;6225177;23;20646;-80
2021/01/04 04:06:50;;;;;;;30.23;22.80;;;3.00;99.90;;;;;;6225530;23;20510;-80
2021/01/04 04:09:19;;;;;;;28.63;21.05;;;2.90;99.90;;;;;;6224145;23;20194;-79
2021/01/04 04:11:45;;;;;;;36.45;24.48;;;2.90;99.90;;;;;;6225134;23;20181;-80
2021/01/04 04:14:11;;;;;;;40.40;22.73;;;2.90;99.90;;;;;;6225286;23;20185;-79
2021/01/04 04:16:38;;;;;;;36.60;24.70;;;2.90;99.90;;;;;;6225189;23;20206;-80
2021/01/04 04:19:04;;;;;;;37.33;24.17;;;2.90;99.90;;;;;;6225017;23;20559;-80
2021/01/04 04:21:31;;;;;;;33.05;24.30;;;2.90;99.90;;;;;;6222532;23;20184;-79
2021/01/04 04:23:58;;;;;;;33.35;22.30;;;2.90;99.90;;;;;;6224349;23;20182;-80
2021/01/04 04:26:26;;;;;;;40.15;24.92;;;2.90;99.90;;;;;;6223953;23;20181;-80
2021/01/04 04:28:53;;;;;;;35.35;22.98;;;2.90;99.90;;;;;;6223402;23;20200;-80
2021/01/04 04:31:19;;;;;;;39.90;24.05;;;2.90;99.90;;;;;;6224069;23;20517;-78
2021/01/04 04:33:46;;;;;;;32.35;23.38;;;2.90;99.90;;;;;;6224641;23;20181;-80
2021/01/04 04:36:18;;;;;;;29.70;21.52;;;2.80;99.90;;;;;;6226155;23;20178;-80
2021/01/04 04:38:44;;;;;;;33.70;23.00;;;2.80;99.90;;;;;;6226180;23;20162;-79
2021/01/04 04:41:20;;;;;;;37.20;25.05;;;2.80;99.90;;;;;;6227511;23;20200;-80
2021/01/04 04:43:49;;;;;;;30.33;21.30;;;2.80;99.90;;;;;;6227429;23;20172;-80
2021/01/04 04:46:31;;;;;;;33.65;25.48;;;2.70;99.90;;;;;;6226869;23;20182;-80
2021/01/04 04:49:01;;;;;;;33.83;24.10;;;2.80;99.90;;;;;;6226830;23;20521;-80
2021/01/04 04:51:57;;;;;;;32.42;23.30;;;2.80;99.90;;;;;;6227922;23;20167;-79
2021/01/04 04:54:56;;;;;;;29.10;22.67;;;2.90;99.90;;;;;;6206759;23;20216;-79
2021/01/04 04:57:58;;;;;;;29.35;22.67;;;2.90;99.90;;;;;;6226047;23;20202;-79
2021/01/04 05:00:38;;;;;;;35.63;22.73;;;2.90;99.90;;;;;;6223995;23;20606;-80
2021/01/04 05:03:14;;;;;;;33.55;23.00;;;2.90;99.90;;;;;;6221303;23;20166;-80
2021/01/04 05:05:56;;;;;;;31.85;21.13;;;3.00;99.90;;;;;;6221612;23;20207;-81
2021/01/04 05:08:46;;;;;;;31.02;20.80;;;3.00;99.90;;;;;;6221607;23;20529;-80
2021/01/04 05:11:13;;;;;;;30.80;21.88;;;3.00;99.90;;;;;;6216818;23;20177;-81
2021/01/04 05:13:45;;;;;;;28.85;21.50;;;3.00;99.90;;;;;;6220954;23;20192;-81
2021/01/04 05:16:17;;;;;;;27.83;22.13;;;3.00;99.90;;;;;;6221372;23;20172;-81
2021/01/04 05:19:04;;;;;;;29.08;20.70;;;3.00;99.90;;;;;;6221571;23;20166;-81
2021/01/04 05:22:05;;;;;;;31.83;22.60;;;3.10;99.90;;;;;;6221384;23;20162;-80
2021/01/04 05:25:15;;;;;;;28.00;21.73;;;3.00;99.90;;;;;;6156318;23;20177;-80
2021/01/04 05:28:07;;;;;;;28.67;21.30;;;2.90;99.90;;;;;;6221185;23;20201;-80
2021/01/04 05:30:47;;;;;;;29.83;20.40;;;2.90;99.90;;;;;;6221654;23;20680;-80
2021/01/04 05:33:42;;;;;;;35.92;24.83;;;2.70;99.90;;;;;;6221469;23;20177;-81
2021/01/04 05:36:24;;;;;;;30.98;20.83;;;2.60;99.90;;;;;;6220978;23;20529;-80
2021/01/04 05:39:03;;;;;;;28.90;23.02;;;2.60;99.90;;;;;;6221731;23;20162;-81
2021/01/04 05:41:45;;;;;;;28.25;21.92;;;2.60;99.90;;;;;;6221694;23;20204;-81
2021/01/04 05:44:37;;;;;;;35.22;23.67;;;2.60;99.90;;;;;;6221710;23;20174;-81
2021/01/04 05:47:33;;;;;;;30.23;25.05;;;2.60;99.90;;;;;;6215975;23;20206;-81
2021/01/04 05:50:07;;;;;;;36.28;24.42;;;2.60;99.90;;;;;;6221469;23;20194;-81
2021/01/04 05:52:34;;;;;;;35.60;24.42;;;2.70;99.90;;;;;;6221720;23;20166;-81
2021/01/04 05:55:00;;;;;;;34.25;21.67;;;2.70;99.90;;;;;;6220993;23;20208;-81
2021/01/04 05:57:28;;;;;;;31.20;21.80;;;2.80;99.90;;;;;;6221406;23;20202;-81
2021/01/04 05:59:56;;;;;;;34.55;24.73;;;2.90;99.90;;;;;;6221580;23;20177;-81
2021/01/04 06:02:25;;;;;;;31.35;24.65;;;2.90;99.90;;;;;;6221501;23;20178;-81
2021/01/04 06:04:52;;;;;;;31.50;24.90;;;2.90;99.90;;;;;;6221198;23;20182;-81
2021/01/04 06:07:24;;;;;;;36.42;24.40;;;3.00;99.90;;;;;;6221241;23;20273;-81
2021/01/04 06:09:55;;;;;;;32.60;23.90;;;3.00;99.90;;;;;;6221227;23;20186;-80
2021/01/04 06:12:34;;;;;;;29.15;22.48;;;3.10;99.90;;;;;;6221383;23;20185;-80
2021/01/04 06:15:05;;;;;;;31.33;22.70;;;3.10;99.90;;;;;;6221475;23;20166;-81
2021/01/04 06:17:35;;;;;;;30.55;22.73;;;3.10;99.90;;;;;;6221265;23;20221;-81
2021/01/04 06:20:15;;;;;;;28.92;20.75;;;3.20;99.90;;;;;;6221022;23;20158;-81
2021/01/04 06:22:42;;;;;;;29.23;20.98;;;3.20;99.90;;;;;;6221045;23;20159;-80
2021/01/04 06:25:09;;;;;;;32.78;22.67;;;3.20;99.90;;;;;;6220369;23;20178;-81
2021/01/04 06:27:37;;;;;;;29.73;23.15;;;3.20;99.90;;;;;;6220507;23;20209;-80
2021/01/04 06:30:21;;;;;;;34.92;24.45;;;3.20;99.90;;;;;;6221101;23;20206;-81
2021/01/04 06:32:50;;;;;;;27.55;21.48;;;3.30;99.90;;;;;;6221039;23;20603;-80
2021/01/04 06:35:24;;;;;;;31.45;20.92;;;3.30;99.90;;;;;;6220071;23;20186;-81
2021/01/04 06:37:50;;;;;;;32.35;22.55;;;3.30;99.90;;;;;;6219969;23;20708;-80
2021/01/04 06:40:35;;;;;;;30.77;18.83;;;3.30;99.90;;;;;;6220560;23;20178;-81
2021/01/04 06:43:10;;;;;;;29.95;20.80;;;3.30;99.90;;;;;;6220493;23;20629;-81
2021/01/04 06:45:46;;;;;;;31.40;21.70;;;3.20;99.90;;;;;;6219913;23;20216;-81
2021/01/04 06:48:18;;;;;;;32.60;23.58;;;3.20;99.90;;;;;;6220158;23;20535;-81
2021/01/04 06:51:00;;;;;;;28.33;21.23;;;3.10;99.90;;;;;;6220022;23;20186;-81
2021/01/04 06:54:01;;;;;;;28.15;20.27;;;3.10;99.90;;;;;;6221153;23;20166;-80
2021/01/04 06:57:11;;;;;;;28.73;21.42;;;3.10;99.90;;;;;;6181545;23;20188;-79
2021/01/04 07:00:09;;;;;;;31.13;20.98;;;3.00;99.90;;;;;;6220566;23;20162;-81
2021/01/04 07:03:08;;;;;;;32.08;21.13;;;2.90;99.90;;;;;;6220496;23;20653;-81
2021/01/04 07:05:58;;;;;;;31.52;22.58;;;2.90;99.90;;;;;;6220072;23;20167;-81
2021/01/04 07:08:45;;;;;;;34.15;23.35;;;2.90;99.90;;;;;;6219907;23;20202;-81
2021/01/04 07:11:31;;;;;;;31.92;23.15;;;2.90;99.90;;;;;;6219970;23;20189;-81
2021/01/04 07:14:15;;;;;;;31.48;20.75;;;2.90;99.90;;;;;;6219895;23;20185;-82
2021/01/04 07:16:57;;;;;;;32.97;22.50;;;2.80;99.90;;;;;;6220421;23;20197;-81
2021/01/04 07:19:39;;;;;;;33.15;21.80;;;2.80;99.90;;;;;;6219446;23;20166;-81
2021/01/04 07:22:12;;;;;;;34.67;23.63;;;2.90;99.90;;;;;;6220194;23;20165;-81
2021/01/04 07:25:02;;;;;;;28.85;20.80;;;2.90;99.90;;;;;;6220282;23;20166;-81
2021/01/04 07:27:41;;;;;;;30.40;23.27;;;2.90;99.90;;;;;;6219729;23;20209;-81
2021/01/04 07:30:41;;;;;;;31.70;22.35;;;2.90;99.90;;;;;;6220110;23;20182;-81
2021/01/04 07:33:19;;;;;;;30.73;24.67;;;2.90;99.90;;;;;;6219244;23;20173;-81
2021/01/04 07:35:52;;;;;;;29.42;22.45;;;2.90;99.90;;;;;;6220467;23;20166;-81
2021/01/04 07:38:42;;;;;;;32.85;23.05;;;2.90;99.90;;;;;;6220839;23;20202;-81
2021/01/04 07:41:18;;;;;;;34.15;24.23;;;3.00;99.90;;;;;;6220704;23;20170;-81
2021/01/04 07:44:17;;;;;;;30.00;23.58;;;3.00;99.90;;;;;;6220345;23;20166;-81
2021/01/04 07:47:23;;;;;;;29.77;21.65;;;3.10;99.90;;;;;;6219847;23;20201;-81
2021/01/04 07:50:23;;;;;;;25.75;19.75;;;3.10;99.90;;;;;;6220375;23;20205;-81
2021/01/04 07:53:29;;;;;;;30.25;22.05;;;3.10;99.90;;;;;;6221173;23;20193;-81
2021/01/04 07:56:23;;;;;;;29.55;23.10;;;3.20;99.90;;;;;;6219899;23;20177;-81
2021/01/04 07:59:34;;;;;;;27.73;22.00;;;3.20;99.90;;;;;;6220602;23;20168;-81
2021/01/04 08:02:35;;;;;;;31.70;22.98;;;3.10;99.90;;;;;;6220419;23;20545;-81
2021/01/04 08:05:17;;;;;;;32.20;22.23;;;3.10;99.90;;;;;;6219653;23;20169;-80
2021/01/04 08:08:17;;;;;;;36.75;22.65;;;3.20;99.90;;;;;;6220193;23;20208;-81
2021/01/04 08:11:19;;;;;;;33.28;23.25;;;3.20;99.90;;;;;;6220744;23;20280;-80
2021/01/04 08:14:16;;;;;;;29.42;24.08;;;3.20;99.90;;;;;;6220874;23;20201;-80
2021/01/04 08:16:47;;;;;;;32.08;22.58;;;3.30;99.90;;;;;;6224058;23;20202;-79
2021/01/04 08:19:17;;;;;;;30.05;21.25;;;3.30;99.90;;;;;;6226768;23;20162;-79
2021/01/04 08:21:51;;;;;;;31.25;22.92;;;3.40;99.90;;;;;;6226907;23;20182;-81
2021/01/04 08:24:23;;;;;;;29.48;22.35;;;3.40;99.90;;;;;;6227741;23;20166;-79
2021/01/04 08:27:14;;;;;;;28.67;21.33;;;3.50;99.90;;;;;;6227003;23;20201;-79
2021/01/04 08:29:50;;;;;;;38.63;24.80;;;3.50;99.90;;;;;;6225860;23;20186;-79
2021/01/04 08:32:22;;;;;;;27.55;20.35;;;3.50;99.90;;;;;;6225737;23;20165;-79
2021/01/04 08:34:50;;;;;;;31.25;22.75;;;3.40;99.90;;;;;;6222023;23;20172;-80
2021/01/04 08:37:19;;;;;;;23.50;20.02;;;3.40;99.90;;;;;;6220385;23;20208;-80
2021/01/04 08:39:49;;;;;;;30.60;21.13;;;3.40;99.90;;;;;;6221623;23;20182;-79
2021/01/04 08:42:33;;;;;;;28.92;20.52;;;3.40;99.90;;;;;;6220872;23;20185;-80
2021/01/04 08:45:06;;;;;;;27.75;19.33;;;3.50;99.90;;;;;;6220565;23;20602;-81
2021/01/04 08:47:35;;;;;;;31.52;21.30;;;3.50;99.90;;;;;;6219299;23;20202;-81
2021/01/04 08:50:16;;;;;;;27.90;19.30;;;3.60;99.90;;;;;;6219617;23;20195;-80
2021/01/04 08:52:50;;;;;;;24.65;19.10;;;3.70;99.90;;;;;;6218497;23;20170;-80
2021/01/04 08:55:31;;;;;;;32.60;23.90;;;3.80;99.90;;;;;;6219085;23;20598;-79
2021/01/04 08:58:01;;;;;;;27.48;20.15;;;3.80;99.90;;;;;;6219283;23;20246;-81
2021/01/04 09:00:30;;;;;;;31.90;20.92;;;4.00;99.90;;;;;;6219434;23;20174;-81
2021/01/04 09:03:06;;;;;;;26.08;19.27;;;4.10;99.90;;;;;;6219162;23;20167;-81
2021/01/04 09:05:36;;;;;;;26.83;22.50;;;4.10;99.90;;;;;;6219441;23;20170;-80
2021/01/04 09:08:04;;;;;;;26.85;19.55;;;4.20;99.90;;;;;;6219081;23;20198;-79
2021/01/04 09:10:38;;;;;;;30.85;22.33;;;4.20;99.90;;;;;;6218712;23;20201;-80
2021/01/04 09:13:11;;;;;;;25.02;21.33;;;4.20;99.90;;;;;;6219196;23;20267;-80
2021/01/04 09:15:40;;;;;;;36.50;20.90;;;4.20;99.90;;;;;;6219814;23;20246;-80
2021/01/04 09:18:32;;;;;;;30.75;21.55;;;4.20;99.90;;;;;;6219407;23;20211;-79
2021/01/04 09:21:11;;;;;;;26.88;20.63;;;4.20;99.90;;;;;;6209422;23;20210;-79
2021/01/04 09:23:46;;;;;;;28.20;18.75;;;4.10;99.90;;;;;;6220463;23;20177;-80
2021/01/04 09:29:21;;;;;;;28.48;19.25;;;4.20;99.90;;;;;;6167067;23;20221;-79
2021/01/04 09:31:51;;;;;;;28.42;20.27;;;4.20;99.90;;;;;;6221751;23;20173;-80
2021/01/04 09:34:20;;;;;;;25.27;17.83;;;4.20;99.90;;;;;;6221576;23;20162;-80
2021/01/04 09:36:47;;;;;;;30.92;19.05;;;4.30;99.90;;;;;;6221248;23;20202;-80
2021/01/04 09:39:15;;;;;;;28.75;21.20;;;4.30;99.90;;;;;;6220967;23;20178;-80
2021/01/04 09:41:42;;;;;;;29.92;21.55;;;4.30;99.90;;;;;;6221356;23;20261;-80
2021/01/04 09:44:13;;;;;;;26.25;19.13;;;4.30;99.90;;;;;;6221759;23;20179;-81
2021/01/04 09:46:49;;;;;;;26.90;21.45;;;4.30;99.90;;;;;;6222297;23;20206;-81
2021/01/04 09:49:43;;;;;;;28.58;22.80;;;4.30;99.90;;;;;;6222434;23;20183;-80
2021/01/04 09:52:20;;;;;;;28.60;21.10;;;4.30;99.90;;;;;;6214685;23;20571;-80
2021/01/04 09:54:50;;;;;;;31.48;24.90;;;4.40;99.90;;;;;;6234067;23;20167;-80
2021/01/04 09:57:19;;;;;;;28.15;20.63;;;4.40;99.90;;;;;;6236350;23;20202;-80
2021/01/04 09:59:46;;;;;;;24.95;19.23;;;4.40;99.90;;;;;;6237838;23;20496;-81
2021/01/04 10:02:21;;;;;;;26.48;20.65;;;4.30;99.90;;;;;;6229879;23;20170;-83
2021/01/04 10:04:48;;;;;;;24.77;19.70;;;4.30;99.90;;;;;;6223791;23;20633;-82
2021/01/04 10:07:19;;;;;;;24.13;19.35;;;4.30;99.90;;;;;;6223591;23;20197;-82
2021/01/04 10:09:49;;;;;;;26.80;20.40;;;4.30;99.90;;;;;;6223284;23;20665;-81
2021/01/04 10:12:18;;;;;;;27.02;20.30;;;4.30;99.90;;;;;;6222218;23;20233;-80
2021/01/04 10:14:45;;;;;;;29.65;20.13;;;4.40;99.90;;;;;;6221745;23;20163;-81
2021/01/04 10:17:13;;;;;;;27.05;20.13;;;4.30;99.90;;;;;;6221111;23;20202;-80
2021/01/04 10:19:46;;;;;;;27.90;19.92;;;4.40;99.90;;;;;;6221492;23;20180;-82
2021/01/04 10:22:16;;;;;;;26.08;19.35;;;4.50;99.90;;;;;;6220598;23;20321;-82
2021/01/04 10:24:54;;;;;;;24.95;21.20;;;4.40;99.90;;;;;;6220708;23;20185;-81
2021/01/04 10:27:22;;;;;;;23.85;19.13;;;4.50;99.90;;;;;;6222198;23;20536;-80
2021/01/04 10:29:52;;;;;;;28.00;21.30;;;4.50;99.90;;;;;;6221479;23;20221;-81
2021/01/04 10:32:22;;;;;;;21.58;19.17;;;4.60;99.90;;;;;;6220583;23;20174;-82
2021/01/04 10:34:51;;;;;;;22.40;18.33;;;4.60;99.90;;;;;;6221778;23;20182;-82
2021/01/04 10:37:40;;;;;;;31.10;19.90;;;4.60;99.90;;;;;;6221216;23;20203;-82
2021/01/04 10:40:09;;;;;;;21.38;17.77;;;4.60;99.90;;;;;;6222433;23;20182;-81
2021/01/04 10:42:39;;;;;;;21.95;17.77;;;4.60;99.90;;;;;;6221717;23;20187;-83
2021/01/04 10:45:09;;;;;;;21.63;18.17;;;4.60;99.90;;;;;;6222306;23;20193;-83
2021/01/04 10:47:44;;;;;;;27.70;19.45;;;4.70;99.90;;;;;;6222110;23;20201;-83
2021/01/04 10:50:16;;;;;;;21.42;17.63;;;4.70;99.90;;;;;;6222403;23;20187;-83
2021/01/04 10:52:53;;;;;;;21.98;17.35;;;4.70;99.90;;;;;;6222108;23;20182;-81
2021/01/04 10:55:23;;;;;;;20.67;16.67;;;4.70;99.90;;;;;;6222455;23;20171;-83
2021/01/04 10:57:53;;;;;;;24.55;19.70;;;4.70;99.90;;;;;;6222809;23;20704;-83
2021/01/04 11:00:25;;;;;;;26.52;19.38;;;4.60;99.90;;;;;;6222381;23;20249;-83
2021/01/04 11:02:54;;;;;;;24.50;18.35;;;4.60;99.90;;;;;;6222302;23;20167;-83
2021/01/04 11:05:34;;;;;;;24.52;17.38;;;4.60;99.90;;;;;;6221923;23;20185;-82
2021/01/04 11:08:15;;;;;;;21.67;15.73;;;4.50;99.90;;;;;;6221289;23;20678;-81
2021/01/04 11:10:50;;;;;;;21.80;17.17;;;4.60;99.90;;;;;;6220680;23;20192;-82
2021/01/04 11:13:25;;;;;;;22.25;17.20;;;4.60;99.90;;;;;;6220110;23;20192;-82
2021/01/04 11:15:51;;;;;;;22.50;15.65;;;4.60;99.90;;;;;;6220269;23;20222;-81
2021/01/04 11:18:19;;;;;;;19.30;16.80;;;4.70;99.90;;;;;;6220373;23;20229;-82
2021/01/04 11:20:49;;;;;;;20.33;16.48;;;4.70;99.90;;;;;;6220422;23;20186;-82
2021/01/04 11:23:16;;;;;;;19.75;16.17;;;4.70;99.90;;;;;;6220439;23;20167;-82
2021/01/04 11:25:44;;;;;;;18.73;16.27;;;4.60;99.90;;;;;;6221071;23;20232;-82
2021/01/04 11:28:11;;;;;;;20.00;15.85;;;4.70;99.90;;;;;;6221909;23;20511;-82
2021/01/04 11:30:37;;;;;;;17.42;15.15;;;4.60;99.90;;;;;;6221716;23;20199;-81
2021/01/04 11:33:04;;;;;;;15.75;13.82;;;4.60;99.90;;;;;;6221572;23;20194;-80
2021/01/04 11:35:31;;;;;;;17.35;14.50;;;4.70;99.90;;;;;;6221820;23;20175;-79
2021/01/04 11:37:59;;;;;;;14.77;13.25;;;4.70;99.90;;;;;;6222508;23;20200;-80
2021/01/04 11:40:26;;;;;;;17.67;14.10;;;4.70;99.90;;;;;;6221999;23;20179;-79
2021/01/04 11:42:52;;;;;;;14.98;13.48;;;4.70;99.90;;;;;;6222406;23;20190;-78
2021/01/04 11:45:20;;;;;;;20.95;12.85;;;4.80;99.90;;;;;;6221869;23;20515;-79
2021/01/04 11:47:47;;;;;;;20.55;13.80;;;4.80;99.90;;;;;;6222707;23;20258;-79
2021/01/04 11:50:16;;;;;;;17.80;13.18;;;4.90;99.90;;;;;;6222108;23;20199;-82
2021/01/04 11:52:44;;;;;;;17.02;13.57;;;4.90;99.90;;;;;;6224935;23;20184;-82
2021/01/04 12:22:57;;;;;;;13.10;8.80;;;4.50;99.90;;;;;;6052178;23;20224;-84
2021/01/04 14:39:00;;;;;;;19.80;15.05;;;3.40;99.90;;;;;;6252529;22;20184;-84
2021/01/04 14:58:34;;;;;;;19.35;14.40;;;3.40;99.90;;;;;;6193980;22;20208;-83
2021/01/04 18:30:14;;;;;;;27.13;19.45;;;2.70;99.90;;;;;;6248213;22;20201;-82
2021/01/04 18:32:41;;;;;;;22.17;17.80;;;2.70;99.90;;;;;;6250281;23;20556;-85
2021/01/04 18:35:11;;;;;;;28.20;17.60;;;2.70;99.90;;;;;;6250482;23;20185;-84
2021/01/04 18:37:37;;;;;;;29.75;17.55;;;2.70;99.90;;;;;;6249103;23;20198;-83
2021/01/04 18:40:07;;;;;;;31.10;20.23;;;2.70;99.90;;;;;;6249062;23;20515;-83
2021/01/04 18:42:35;;;;;;;29.17;19.67;;;2.70;99.90;;;;;;6249585;23;20174;-83
2021/01/04 18:45:03;;;;;;;26.42;19.98;;;2.70;99.90;;;;;;6248873;23;20181;-84
2021/01/04 18:47:31;;;;;;;26.42;21.10;;;2.70;99.90;;;;;;6248714;23;20208;-85
2021/01/04 18:49:58;;;;;;;23.83;18.52;;;2.70;99.90;;;;;;6248939;23;20194;-82
2021/01/04 18:52:25;;;;;;;28.67;20.20;;;2.70;99.90;;;;;;6248666;23;20505;-82
2021/01/04 18:54:52;;;;;;;22.90;17.60;;;2.70;99.90;;;;;;6248077;23;20165;-84
2021/01/04 18:57:18;;;;;;;27.25;20.65;;;2.60;99.90;;;;;;6248626;23;20255;-84
2021/01/04 18:59:44;;;;;;;27.48;20.65;;;2.60;99.90;;;;;;6249538;23;20162;-84
2021/01/04 19:02:11;;;;;;;27.85;17.90;;;2.60;99.90;;;;;;6248652;23;20165;-85
2021/01/04 19:04:42;;;;;;;28.48;20.73;;;2.50;99.90;;;;;;6248754;23;20177;-85
2021/01/04 19:07:11;;;;;;;31.00;21.15;;;2.60;99.90;;;;;;6248784;23;20198;-84
2021/01/04 19:09:38;;;;;;;28.42;20.63;;;2.60;99.90;;;;;;6249667;23;20204;-86
2021/01/04 19:12:06;;;;;;;25.85;18.75;;;2.60;99.90;;;;;;6249326;23;20546;-84
2021/01/04 19:14:33;;;;;;;31.23;20.38;;;2.60;99.90;;;;;;6249981;23;20174;-85
2021/01/04 19:17:01;;;;;;;29.27;21.27;;;2.60;99.90;;;;;;6249478;23;20228;-85
2021/01/04 19:19:28;;;;;;;27.35;18.63;;;2.60;99.90;;;;;;6249016;23;20254;-84
2021/01/04 19:21:55;;;;;;;27.73;18.17;;;2.60;99.90;;;;;;6249900;23;20181;-84
2021/01/04 19:24:21;;;;;;;26.58;20.15;;;2.60;99.90;;;;;;6250032;23;20173;-83
2021/01/04 19:26:57;;;;;;;29.30;21.27;;;2.60;99.90;;;;;;6251186;23;20208;-84
2021/01/04 19:29:24;;;;;;;27.30;17.48;;;2.60;99.90;;;;;;6249781;23;20568;-84
2021/01/04 19:31:53;;;;;;;29.30;20.08;;;2.60;99.90;;;;;;6250671;23;20185;-85
2021/01/04 19:34:23;;;;;;;21.35;16.20;;;2.60;99.90;;;;;;6254629;23;20184;-83
2021/01/04 19:36:52;;;;;;;26.88;17.98;;;2.50;99.90;;;;;;6252476;23;20197;-84
2021/01/04 19:39:23;;;;;;;27.25;18.08;;;2.50;99.90;;;;;;6251980;23;20201;-83
2021/01/04 19:41:58;;;;;;;26.58;20.08;;;2.50;99.90;;;;;;6255027;23;20165;-83
2021/01/04 19:45:03;;;;;;;;;;;;;;;;;;;;;
2021/01/04 20:40:51;;;;;;;30.60;18.85;;;2.20;99.90;;;;;;6036488;23;20165;-84
2021/01/04 20:43:18;;;;;;;26.63;16.48;;;2.20;99.90;;;;;;6180167;23;20174;-86